createdAt,value
2019-02-27T07:04:46.689Z,309.38
2019-02-27T07:05:45.532Z,320.62
2019-02-27T07:06:44.621Z,326.25
2019-02-27T07:07:44.603Z,331.88
2019-02-27T07:08:44.592Z,360.00
2019-02-27T07:09:45.807Z,388.12
2019-02-27T07:10:44.577Z,416.25
2019-02-27T07:11:46.381Z,450.00
2019-02-27T07:12:44.549Z,511.88
2019-02-27T07:13:44.537Z,646.88
2019-02-27T07:14:44.533Z,663.75
2019-02-27T07:15:47.733Z,646.88
2019-02-27T07:16:44.511Z,663.75
2019-02-27T07:17:44.498Z,675.00
2019-02-27T07:18:44.485Z,669.38
2019-02-27T07:19:44.475Z,708.75
2019-02-27T07:20:44.465Z,725.62
2019-02-27T07:21:44.453Z,725.62
2019-02-27T07:22:46.571Z,736.88
2019-02-27T07:23:44.434Z,731.25
2019-02-27T07:24:44.422Z,759.38
2019-02-27T07:25:44.409Z,781.88
2019-02-27T07:26:44.401Z,798.75
2019-02-27T07:27:44.389Z,826.88
2019-02-27T07:28:44.381Z,871.88
2019-02-27T07:29:44.365Z,888.75
2019-02-27T07:30:44.366Z,894.38
2019-02-27T07:31:44.343Z,916.88
2019-02-27T07:32:44.353Z,871.88
2019-02-27T07:33:44.322Z,843.75
2019-02-27T07:34:46.752Z,911.25
2019-02-27T07:35:45.303Z,956.25
2019-02-27T07:36:44.288Z,967.50
2019-02-27T07:37:47.179Z,1035.00
2019-02-27T07:38:44.268Z,1096.88
2019-02-27T07:39:44.257Z,1170.00
2019-02-27T07:40:44.243Z,1215.00
2019-02-27T07:41:44.233Z,1203.75
2019-02-27T07:42:44.242Z,1220.62
2019-02-27T07:43:44.220Z,1254.38
2019-02-27T07:44:44.202Z,1248.75
2019-02-27T07:45:45.551Z,1293.75
2019-02-27T07:46:44.183Z,1355.62
2019-02-27T07:47:44.172Z,1271.25
2019-02-27T07:48:44.720Z,1175.62
2019-02-27T07:49:44.171Z,1130.62
2019-02-27T07:50:48.347Z,1130.62
2019-02-27T07:51:44.129Z,1119.38
2019-02-27T07:52:44.140Z,1338.75
2019-02-27T07:53:44.105Z,1451.25
2019-02-27T07:54:44.117Z,1361.25
2019-02-27T07:55:44.084Z,1338.75
2019-02-27T07:56:44.067Z,1389.38
2019-02-27T07:57:44.072Z,1462.50
2019-02-27T07:58:44.049Z,1625.62
2019-02-27T07:59:44.038Z,1873.12
2019-02-27T08:00:44.033Z,1811.25
2019-02-27T08:01:44.258Z,1771.88
2019-02-27T08:02:44.006Z,1777.50
2019-02-27T08:03:45.574Z,1625.62
2019-02-27T08:04:43.981Z,1625.62
2019-02-27T08:05:43.966Z,1901.25
2019-02-27T08:06:43.965Z,2306.25
2019-02-27T08:07:48.704Z,2379.38
2019-02-27T08:08:44.937Z,2345.62
2019-02-27T08:09:43.925Z,2401.88
2019-02-27T08:10:45.274Z,2075.62
2019-02-27T08:11:47.104Z,1563.75
2019-02-27T08:12:43.891Z,1282.50
2019-02-27T08:13:43.884Z,1175.62
2019-02-27T08:14:43.874Z,1108.12
2019-02-27T08:15:43.862Z,1063.12
2019-02-27T08:16:43.850Z,1029.38
2019-02-27T08:17:43.860Z,995.62
2019-02-27T08:18:43.835Z,973.12
2019-02-27T08:19:45.384Z,961.88
2019-02-27T08:20:43.807Z,950.62
2019-02-27T08:21:43.793Z,956.25
2019-02-27T08:25:10.978Z,984.38
2019-02-27T08:26:10.882Z,1006.88
2019-02-27T08:27:43.747Z,990.00
2019-02-27T08:28:41.438Z,984.38
2019-02-27T08:30:13.809Z,990.00
2019-02-27T08:31:11.794Z,978.75
2019-02-27T08:32:11.773Z,1040.62
2019-02-27T08:33:11.765Z,1096.88
2019-02-27T08:34:11.747Z,1164.38
2019-02-27T08:35:11.739Z,1130.62
2019-02-27T08:36:11.728Z,1063.12
2019-02-27T08:37:11.717Z,1046.25
2019-02-27T08:38:11.710Z,1063.12
2019-02-27T08:39:11.700Z,1046.25
2019-02-27T08:40:11.686Z,1113.75
2019-02-27T08:41:11.671Z,1136.25
2019-02-27T08:42:11.664Z,1175.62
2019-02-27T08:43:11.651Z,1383.75
2019-02-27T08:44:12.262Z,1743.75
2019-02-27T08:45:19.233Z,1833.75
2019-02-27T08:46:12.615Z,1659.38
2019-02-27T08:47:11.609Z,1586.25
